sensor_id;sensor_type;location;lat;lon;timestamp;temperature;humidity
26342;DHT22;14054;50.108;8.640;2022-08-11T00:00:41;22.20;62.50
26342;DHT22;14054;50.108;8.640;2022-08-11T00:03:10;22.10;62.70
26342;DHT22;14054;50.108;8.640;2022-08-11T00:08:24;22.10;75.40
26342;DHT22;14054;50.108;8.640;2022-08-11T00:10:56;22.00;63.40
26342;DHT22;14054;50.108;8.640;2022-08-11T00:13:38;22.00;63.50
26342;DHT22;14054;50.108;8.640;2022-08-11T00:16:16;21.90;63.60
26342;DHT22;14054;50.108;8.640;2022-08-11T00:18:48;21.90;63.80
26342;DHT22;14054;50.108;8.640;2022-08-11T00:21:15;21.80;64.00
26342;DHT22;14054;50.108;8.640;2022-08-11T00:23:43;21.90;64.60
26342;DHT22;14054;50.108;8.640;2022-08-11T00:26:11;21.80;64.60
26342;DHT22;14054;50.108;8.640;2022-08-11T00:31:06;21.60;77.40
26342;DHT22;14054;50.108;8.640;2022-08-11T00:33:42;21.50;65.50
26342;DHT22;14054;50.108;8.640;2022-08-11T00:36:10;21.50;65.90
26342;DHT22;14054;50.108;8.640;2022-08-11T00:38:39;21.60;65.90
26342;DHT22;14054;50.108;8.640;2022-08-11T00:41:17;21.50;66.00
26342;DHT22;14054;50.108;8.640;2022-08-11T00:46:56;21.50;66.00
26342;DHT22;14054;50.108;8.640;2022-08-11T00:55:02;21.50;66.40
26342;DHT22;14054;50.108;8.640;2022-08-11T01:06:45;21.30;67.10
26342;DHT22;14054;50.108;8.640;2022-08-11T01:38:33;21.00;93.50
26342;DHT22;14054;50.108;8.640;2022-08-11T01:44:55;21.20;97.70
26342;DHT22;14054;50.108;8.640;2022-08-11T01:47:59;21.40;98.20
26342;DHT22;14054;50.108;8.640;2022-08-11T03:21:33;20.50;99.90
26342;DHT22;14054;50.108;8.640;2022-08-11T03:29:36;20.70;99.90
26342;DHT22;14054;50.108;8.640;2022-08-11T03:32:25;20.90;99.90
26342;DHT22;14054;50.108;8.640;2022-08-11T03:46:09;20.40;77.00
26342;DHT22;14054;50.108;8.640;2022-08-11T03:48:47;20.30;78.40
26342;DHT22;14054;50.108;8.640;2022-08-11T03:54:15;20.30;74.80
26342;DHT22;14054;50.108;8.640;2022-08-11T04:11:05;20.30;76.00
26342;DHT22;14054;50.108;8.640;2022-08-11T04:29:19;20.10;81.70
26342;DHT22;14054;50.108;8.640;2022-08-11T04:34:48;20.40;96.40
26342;DHT22;14054;50.108;8.640;2022-08-11T04:43:38;19.80;79.60
26342;DHT22;14054;50.108;8.640;2022-08-11T04:50:19;19.90;79.90
26342;DHT22;14054;50.108;8.640;2022-08-11T04:56:13;20.00;79.90
26342;DHT22;14054;50.108;8.640;2022-08-11T04:59:13;19.90;80.30
26342;DHT22;14054;50.108;8.640;2022-08-11T05:13:23;19.70;80.90
26342;DHT22;14054;50.108;8.640;2022-08-11T05:16:11;19.70;81.70
26342;DHT22;14054;50.108;8.640;2022-08-11T05:18:57;19.80;81.60
26342;DHT22;14054;50.108;8.640;2022-08-11T05:21:53;19.80;81.80
26342;DHT22;14054;50.108;8.640;2022-08-11T05:24:59;19.90;81.30
26342;DHT22;14054;50.108;8.640;2022-08-11T05:27:53;19.90;81.40
26342;DHT22;14054;50.108;8.640;2022-08-11T05:30:43;19.90;81.30
26342;DHT22;14054;50.108;8.640;2022-08-11T05:33:47;20.00;81.40
26342;DHT22;14054;50.108;8.640;2022-08-11T05:36:50;19.90;81.10
26342;DHT22;14054;50.108;8.640;2022-08-11T05:39:23;20.00;82.30
26342;DHT22;14054;50.108;8.640;2022-08-11T05:42:07;20.00;81.70
26342;DHT22;14054;50.108;8.640;2022-08-11T05:44:56;20.10;81.80
26342;DHT22;14054;50.108;8.640;2022-08-11T05:47:41;20.20;81.80
26342;DHT22;14054;50.108;8.640;2022-08-11T05:50:26;20.20;81.60
26342;DHT22;14054;50.108;8.640;2022-08-11T05:53:12;20.30;81.40
26342;DHT22;14054;50.108;8.640;2022-08-11T05:55:58;20.40;81.10
26342;DHT22;14054;50.108;8.640;2022-08-11T05:58:42;20.50;80.80
26342;DHT22;14054;50.108;8.640;2022-08-11T06:01:11;20.50;80.40
26342;DHT22;14054;50.108;8.640;2022-08-11T06:03:37;20.60;80.10
26342;DHT22;14054;50.108;8.640;2022-08-11T06:06:26;20.70;80.10
26342;DHT22;14054;50.108;8.640;2022-08-11T06:08:56;20.90;80.00
26342;DHT22;14054;50.108;8.640;2022-08-11T06:11:23;20.90;79.00
26342;DHT22;14054;50.108;8.640;2022-08-11T06:13:50;21.00;79.40
26342;DHT22;14054;50.108;8.640;2022-08-11T06:16:21;21.10;79.00
26342;DHT22;14054;50.108;8.640;2022-08-11T06:18:48;21.20;78.30
26342;DHT22;14054;50.108;8.640;2022-08-11T06:21:15;21.30;77.30
26342;DHT22;14054;50.108;8.640;2022-08-11T06:23:42;21.40;77.30
26342;DHT22;14054;50.108;8.640;2022-08-11T06:26:10;21.50;76.80
26342;DHT22;14054;50.108;8.640;2022-08-11T06:28:38;21.70;76.90
26342;DHT22;14054;50.108;8.640;2022-08-11T06:31:16;21.70;76.10
26342;DHT22;14054;50.108;8.640;2022-08-11T06:36:30;21.90;75.20
26342;DHT22;14054;50.108;8.640;2022-08-11T06:39:19;21.90;75.10
26342;DHT22;14054;50.108;8.640;2022-08-11T06:42:06;22.10;75.10
26342;DHT22;14054;50.108;8.640;2022-08-11T06:44:40;22.20;74.50
26342;DHT22;14054;50.108;8.640;2022-08-11T06:47:11;22.40;74.30
26342;DHT22;14054;50.108;8.640;2022-08-11T06:49:43;22.50;73.40
26342;DHT22;14054;50.108;8.640;2022-08-11T06:52:35;22.70;73.30
26342;DHT22;14054;50.108;8.640;2022-08-11T06:55:12;22.80;72.60
26342;DHT22;14054;50.108;8.640;2022-08-11T06:57:40;22.70;72.00
26342;DHT22;14054;50.108;8.640;2022-08-11T07:00:29;22.90;72.20
26342;DHT22;14054;50.108;8.640;2022-08-11T07:03:00;23.10;71.50
26342;DHT22;14054;50.108;8.640;2022-08-11T07:11:54;23.40;70.10
26342;DHT22;14054;50.108;8.640;2022-08-11T07:14:49;23.40;69.80
26342;DHT22;14054;50.108;8.640;2022-08-11T07:17:40;23.70;69.20
26342;DHT22;14054;50.108;8.640;2022-08-11T07:20:08;23.60;69.10
26342;DHT22;14054;50.108;8.640;2022-08-11T07:22:55;23.80;69.20
26342;DHT22;14054;50.108;8.640;2022-08-11T07:25:43;23.90;68.70
26342;DHT22;14054;50.108;8.640;2022-08-11T07:28:30;23.80;69.10
26342;DHT22;14054;50.108;8.640;2022-08-11T07:31:42;23.90;69.30
26342;DHT22;14054;50.108;8.640;2022-08-11T07:34:20;23.90;68.10
26342;DHT22;14054;50.108;8.640;2022-08-11T07:36:53;24.30;69.90
26342;DHT22;14054;50.108;8.640;2022-08-11T07:39:22;24.50;69.60
26342;DHT22;14054;50.108;8.640;2022-08-11T07:41:52;24.70;67.80
26342;DHT22;14054;50.108;8.640;2022-08-11T07:44:18;24.80;69.40
26342;DHT22;14054;50.108;8.640;2022-08-11T07:46:46;24.70;66.10
26342;DHT22;14054;50.108;8.640;2022-08-11T07:49:34;24.60;66.80
26342;DHT22;14054;50.108;8.640;2022-08-11T07:52:19;25.00;66.80
26342;DHT22;14054;50.108;8.640;2022-08-11T07:54:58;25.20;68.00
26342;DHT22;14054;50.108;8.640;2022-08-11T07:57:25;25.30;65.40
26342;DHT22;14054;50.108;8.640;2022-08-11T08:00:10;25.40;65.00
26342;DHT22;14054;50.108;8.640;2022-08-11T08:02:54;25.60;64.60
26342;DHT22;14054;50.108;8.640;2022-08-11T08:05:40;25.60;64.50
26342;DHT22;14054;50.108;8.640;2022-08-11T08:08:25;25.70;63.80
26342;DHT22;14054;50.108;8.640;2022-08-11T08:11:10;25.70;62.80
26342;DHT22;14054;50.108;8.640;2022-08-11T08:13:55;25.90;64.40
26342;DHT22;14054;50.108;8.640;2022-08-11T08:16:41;26.00;62.80
26342;DHT22;14054;50.108;8.640;2022-08-11T08:19:26;26.00;63.40
26342;DHT22;14054;50.108;8.640;2022-08-11T08:21:52;26.20;62.80
26342;DHT22;14054;50.108;8.640;2022-08-11T08:24:18;26.30;61.40
26342;DHT22;14054;50.108;8.640;2022-08-11T08:26:47;26.20;63.30
26342;DHT22;14054;50.108;8.640;2022-08-11T08:29:24;26.00;61.70
26342;DHT22;14054;50.108;8.640;2022-08-11T08:32:08;26.00;63.60
26342;DHT22;14054;50.108;8.640;2022-08-11T08:34:36;26.30;62.00
26342;DHT22;14054;50.108;8.640;2022-08-11T08:37:03;26.60;62.40
26342;DHT22;14054;50.108;8.640;2022-08-11T08:39:30;26.80;62.50
26342;DHT22;14054;50.108;8.640;2022-08-11T08:41:58;26.70;61.60
26342;DHT22;14054;50.108;8.640;2022-08-11T08:44:25;26.50;61.70
26342;DHT22;14054;50.108;8.640;2022-08-11T08:46:55;26.40;60.70
26342;DHT22;14054;50.108;8.640;2022-08-11T08:49:26;26.70;61.80
26342;DHT22;14054;50.108;8.640;2022-08-11T08:51:55;27.00;60.10
26342;DHT22;14054;50.108;8.640;2022-08-11T08:54:29;27.10;60.10
26342;DHT22;14054;50.108;8.640;2022-08-11T08:56:58;27.00;59.60
26342;DHT22;14054;50.108;8.640;2022-08-11T08:59:28;26.70;59.90
26342;DHT22;14054;50.108;8.640;2022-08-11T09:02:01;26.60;60.20
26342;DHT22;14054;50.108;8.640;2022-08-11T09:04:27;26.70;60.00
26342;DHT22;14054;50.108;8.640;2022-08-11T09:06:57;27.00;59.80
26342;DHT22;14054;50.108;8.640;2022-08-11T09:09:23;27.20;59.70
26342;DHT22;14054;50.108;8.640;2022-08-11T09:11:50;27.30;59.20
26342;DHT22;14054;50.108;8.640;2022-08-11T09:14:25;27.20;59.70
26342;DHT22;14054;50.108;8.640;2022-08-11T09:17:17;27.10;58.70
26342;DHT22;14054;50.108;8.640;2022-08-11T09:19:44;27.40;58.80
26342;DHT22;14054;50.108;8.640;2022-08-11T09:22:10;27.50;58.50
26342;DHT22;14054;50.108;8.640;2022-08-11T09:24:55;27.50;57.70
26342;DHT22;14054;50.108;8.640;2022-08-11T09:27:41;27.70;58.20
26342;DHT22;14054;50.108;8.640;2022-08-11T09:30:07;27.90;59.30
26342;DHT22;14054;50.108;8.640;2022-08-11T09:35:03;28.50;55.90
26342;DHT22;14054;50.108;8.640;2022-08-11T09:37:29;28.80;55.80
26342;DHT22;14054;50.108;8.640;2022-08-11T09:40:15;28.60;55.70
26342;DHT22;14054;50.108;8.640;2022-08-11T09:43:07;28.10;54.90
26342;DHT22;14054;50.108;8.640;2022-08-11T09:45:55;27.90;54.60
26342;DHT22;14054;50.108;8.640;2022-08-11T09:48:26;28.20;54.50
26342;DHT22;14054;50.108;8.640;2022-08-11T09:50:54;28.70;54.00
26342;DHT22;14054;50.108;8.640;2022-08-11T09:53:21;28.90;53.90
26342;DHT22;14054;50.108;8.640;2022-08-11T09:55:48;29.00;53.60
26342;DHT22;14054;50.108;8.640;2022-08-11T09:58:15;29.20;53.40
26342;DHT22;14054;50.108;8.640;2022-08-11T10:00:46;29.40;52.40
26342;DHT22;14054;50.108;8.640;2022-08-11T10:03:15;29.10;52.40
26342;DHT22;14054;50.108;8.640;2022-08-11T10:05:47;29.60;51.70
26342;DHT22;14054;50.108;8.640;2022-08-11T10:08:33;29.80;50.80
26342;DHT22;14054;50.108;8.640;2022-08-11T10:11:00;30.10;50.60
26342;DHT22;14054;50.108;8.640;2022-08-11T10:13:30;29.70;49.70
26342;DHT22;14054;50.108;8.640;2022-08-11T10:16:01;29.40;49.90
26342;DHT22;14054;50.108;8.640;2022-08-11T10:18:35;29.30;50.60
26342;DHT22;14054;50.108;8.640;2022-08-11T10:21:11;29.50;50.50
26342;DHT22;14054;50.108;8.640;2022-08-11T10:23:37;29.30;50.00
26342;DHT22;14054;50.108;8.640;2022-08-11T10:26:23;28.90;50.60
26342;DHT22;14054;50.108;8.640;2022-08-11T10:29:09;29.40;50.60
26342;DHT22;14054;50.108;8.640;2022-08-11T10:31:55;30.20;49.70
26342;DHT22;14054;50.108;8.640;2022-08-11T10:34:41;30.10;49.00
26342;DHT22;14054;50.108;8.640;2022-08-11T10:37:08;29.80;49.20
26342;DHT22;14054;50.108;8.640;2022-08-11T10:39:34;30.00;49.20
26342;DHT22;14054;50.108;8.640;2022-08-11T10:42:01;30.50;49.30
26342;DHT22;14054;50.108;8.640;2022-08-11T10:44:50;31.00;47.80
26342;DHT22;14054;50.108;8.640;2022-08-11T10:47:16;31.40;47.50
26342;DHT22;14054;50.108;8.640;2022-08-11T10:50:03;31.30;46.80
26342;DHT22;14054;50.108;8.640;2022-08-11T10:52:48;31.70;46.80
26342;DHT22;14054;50.108;8.640;2022-08-11T10:55:35;31.50;46.50
26342;DHT22;14054;50.108;8.640;2022-08-11T10:58:21;31.90;46.30
26342;DHT22;14054;50.108;8.640;2022-08-11T11:01:05;32.00;46.80
26342;DHT22;14054;50.108;8.640;2022-08-11T11:03:31;32.40;46.00
26342;DHT22;14054;50.108;8.640;2022-08-11T11:08:38;32.40;44.80
26342;DHT22;14054;50.108;8.640;2022-08-11T11:11:20;31.80;45.10
26342;DHT22;14054;50.108;8.640;2022-08-11T11:13:49;31.20;46.20
26342;DHT22;14054;50.108;8.640;2022-08-11T11:16:35;31.50;46.70
26342;DHT22;14054;50.108;8.640;2022-08-11T11:19:22;31.90;45.70
26342;DHT22;14054;50.108;8.640;2022-08-11T11:21:52;31.90;44.90
26342;DHT22;14054;50.108;8.640;2022-08-11T11:30:09;35.60;38.50
26342;DHT22;14054;50.108;8.640;2022-08-11T11:36:08;35.20;39.10
26342;DHT22;14054;50.108;8.640;2022-08-11T11:41:03;36.50;36.10
26342;DHT22;14054;50.108;8.640;2022-08-11T11:43:47;37.10;35.30
26342;DHT22;14054;50.108;8.640;2022-08-11T11:46:12;37.20;35.10
26342;DHT22;14054;50.108;8.640;2022-08-11T11:48:39;36.60;34.80
26342;DHT22;14054;50.108;8.640;2022-08-11T11:51:06;38.00;34.20
26342;DHT22;14054;50.108;8.640;2022-08-11T11:53:32;37.90;34.20
26342;DHT22;14054;50.108;8.640;2022-08-11T11:55:58;38.40;34.60
26342;DHT22;14054;50.108;8.640;2022-08-11T11:58:25;37.70;33.60
26342;DHT22;14054;50.108;8.640;2022-08-11T12:01:11;37.70;34.70
26342;DHT22;14054;50.108;8.640;2022-08-11T12:03:41;38.00;33.90
26342;DHT22;14054;50.108;8.640;2022-08-11T12:06:08;37.00;35.00
26342;DHT22;14054;50.108;8.640;2022-08-11T12:08:36;39.20;32.00
26342;DHT22;14054;50.108;8.640;2022-08-11T12:11:03;38.60;32.60
26342;DHT22;14054;50.108;8.640;2022-08-11T12:13:51;38.90;32.40
26342;DHT22;14054;50.108;8.640;2022-08-11T12:16:22;38.60;32.30
26342;DHT22;14054;50.108;8.640;2022-08-11T12:18:50;39.00;32.00
26342;DHT22;14054;50.108;8.640;2022-08-11T12:21:17;38.90;32.20
26342;DHT22;14054;50.108;8.640;2022-08-11T12:23:45;38.50;31.40
26342;DHT22;14054;50.108;8.640;2022-08-11T12:26:30;39.40;32.20
26342;DHT22;14054;50.108;8.640;2022-08-11T12:29:16;38.60;30.40
26342;DHT22;14054;50.108;8.640;2022-08-11T12:31:44;38.00;31.80
26342;DHT22;14054;50.108;8.640;2022-08-11T12:34:14;38.70;31.40
26342;DHT22;14054;50.108;8.640;2022-08-11T12:36:52;38.20;32.40
26342;DHT22;14054;50.108;8.640;2022-08-11T12:39:21;38.70;31.50
26342;DHT22;14054;50.108;8.640;2022-08-11T12:42:09;40.00;44.30
26342;DHT22;14054;50.108;8.640;2022-08-11T12:44:54;39.80;43.00
26342;DHT22;14054;50.108;8.640;2022-08-11T12:47:41;39.90;42.10
26342;DHT22;14054;50.108;8.640;2022-08-11T12:50:28;39.40;41.70
26342;DHT22;14054;50.108;8.640;2022-08-11T12:53:13;38.80;40.70
26342;DHT22;14054;50.108;8.640;2022-08-11T12:55:40;39.90;41.10
26342;DHT22;14054;50.108;8.640;2022-08-11T12:58:26;39.70;39.90
26342;DHT22;14054;50.108;8.640;2022-08-11T13:00:52;39.30;41.00
26342;DHT22;14054;50.108;8.640;2022-08-11T13:03:37;39.50;42.40
26342;DHT22;14054;50.108;8.640;2022-08-11T13:06:23;38.80;42.80
26342;DHT22;14054;50.108;8.640;2022-08-11T13:08:49;38.60;42.30
26342;DHT22;14054;50.108;8.640;2022-08-11T13:11:15;38.80;41.40
26342;DHT22;14054;50.108;8.640;2022-08-11T13:14:00;39.30;41.20
26342;DHT22;14054;50.108;8.640;2022-08-11T13:16:30;39.40;39.50
26342;DHT22;14054;50.108;8.640;2022-08-11T13:18:58;39.50;40.00
26342;DHT22;14054;50.108;8.640;2022-08-11T13:21:25;39.90;39.00
26342;DHT22;14054;50.108;8.640;2022-08-11T13:23:52;38.50;39.20
26342;DHT22;14054;50.108;8.640;2022-08-11T13:26:18;38.60;39.60
26342;DHT22;14054;50.108;8.640;2022-08-11T13:28:44;39.00;38.40
26342;DHT22;14054;50.108;8.640;2022-08-11T13:31:10;38.70;38.50
26342;DHT22;14054;50.108;8.640;2022-08-11T13:33:45;39.10;38.70
26342;DHT22;14054;50.108;8.640;2022-08-11T13:36:11;38.90;38.80
26342;DHT22;14054;50.108;8.640;2022-08-11T13:38:41;39.80;38.70
26342;DHT22;14054;50.108;8.640;2022-08-11T13:43:54;39.90;27.70
26342;DHT22;14054;50.108;8.640;2022-08-11T13:46:22;38.80;28.60
26342;DHT22;14054;50.108;8.640;2022-08-11T13:48:53;38.90;28.80
26342;DHT22;14054;50.108;8.640;2022-08-11T13:51:20;39.10;28.40
26342;DHT22;14054;50.108;8.640;2022-08-11T13:54:18;39.90;29.00
26342;DHT22;14054;50.108;8.640;2022-08-11T13:56:46;39.20;27.80
26342;DHT22;14054;50.108;8.640;2022-08-11T13:59:14;39.80;28.30
26342;DHT22;14054;50.108;8.640;2022-08-11T14:01:55;40.00;28.30
26342;DHT22;14054;50.108;8.640;2022-08-11T14:04:41;39.50;28.50
26342;DHT22;14054;50.108;8.640;2022-08-11T14:07:09;39.50;28.70
26342;DHT22;14054;50.108;8.640;2022-08-11T14:09:39;39.50;28.20
26342;DHT22;14054;50.108;8.640;2022-08-11T14:12:14;39.30;28.20
26342;DHT22;14054;50.108;8.640;2022-08-11T14:15:13;39.40;28.40
26342;DHT22;14054;50.108;8.640;2022-08-11T14:17:47;39.30;28.90
26342;DHT22;14054;50.108;8.640;2022-08-11T14:20:18;39.80;28.70
26342;DHT22;14054;50.108;8.640;2022-08-11T14:22:44;39.70;28.40
26342;DHT22;14054;50.108;8.640;2022-08-11T14:25:13;39.20;28.60
26342;DHT22;14054;50.108;8.640;2022-08-11T14:27:40;38.80;28.90
26342;DHT22;14054;50.108;8.640;2022-08-11T14:30:06;38.20;28.90
26342;DHT22;14054;50.108;8.640;2022-08-11T14:32:53;37.90;29.00
26342;DHT22;14054;50.108;8.640;2022-08-11T14:35:20;38.80;28.70
26342;DHT22;14054;50.108;8.640;2022-08-11T14:37:46;38.80;28.60
26342;DHT22;14054;50.108;8.640;2022-08-11T14:40:12;38.30;28.90
26342;DHT22;14054;50.108;8.640;2022-08-11T14:42:58;35.30;31.10
26342;DHT22;14054;50.108;8.640;2022-08-11T14:45:44;35.00;32.30
26342;DHT22;14054;50.108;8.640;2022-08-11T14:48:39;33.70;33.50
26342;DHT22;14054;50.108;8.640;2022-08-11T14:51:06;32.80;35.20
26342;DHT22;14054;50.108;8.640;2022-08-11T14:55:59;32.20;35.00
26342;DHT22;14054;50.108;8.640;2022-08-11T14:58:43;31.80;36.60
26342;DHT22;14054;50.108;8.640;2022-08-11T15:01:08;32.20;36.70
26342;DHT22;14054;50.108;8.640;2022-08-11T15:03:55;32.30;36.30
26342;DHT22;14054;50.108;8.640;2022-08-11T15:06:24;32.50;36.60
26342;DHT22;14054;50.108;8.640;2022-08-11T15:08:50;32.50;36.40
26342;DHT22;14054;50.108;8.640;2022-08-11T15:11:21;32.10;36.10
26342;DHT22;14054;50.108;8.640;2022-08-11T15:14:08;32.00;36.50
26342;DHT22;14054;50.108;8.640;2022-08-11T15:16:36;31.80;37.50
26342;DHT22;14054;50.108;8.640;2022-08-11T15:19:21;31.70;36.70
26342;DHT22;14054;50.108;8.640;2022-08-11T15:21:49;31.70;36.80
26342;DHT22;14054;50.108;8.640;2022-08-11T15:24:34;31.70;37.10
26342;DHT22;14054;50.108;8.640;2022-08-11T15:27:04;31.60;37.10
26342;DHT22;14054;50.108;8.640;2022-08-11T15:29:50;31.80;37.20
26342;DHT22;14054;50.108;8.640;2022-08-11T15:32:39;31.60;37.40
26342;DHT22;14054;50.108;8.640;2022-08-11T15:35:25;31.50;37.70
26342;DHT22;14054;50.108;8.640;2022-08-11T15:38:31;31.60;37.70
26342;DHT22;14054;50.108;8.640;2022-08-11T15:41:02;31.50;38.20
26342;DHT22;14054;50.108;8.640;2022-08-11T15:43:52;31.40;38.10
26342;DHT22;14054;50.108;8.640;2022-08-11T15:46:49;31.20;37.60
26342;DHT22;14054;50.108;8.640;2022-08-11T15:49:21;31.20;38.30
26342;DHT22;14054;50.108;8.640;2022-08-11T15:51:53;31.20;38.40
26342;DHT22;14054;50.108;8.640;2022-08-11T15:54:25;31.20;38.30
26342;DHT22;14054;50.108;8.640;2022-08-11T15:56:53;31.20;38.30
26342;DHT22;14054;50.108;8.640;2022-08-11T15:59:20;31.10;38.10
26342;DHT22;14054;50.108;8.640;2022-08-11T16:02:09;31.10;38.40
26342;DHT22;14054;50.108;8.640;2022-08-11T16:04:36;31.00;38.40
26342;DHT22;14054;50.108;8.640;2022-08-11T16:07:05;31.00;38.60
26342;DHT22;14054;50.108;8.640;2022-08-11T16:09:43;31.10;38.40
26342;DHT22;14054;50.108;8.640;2022-08-11T16:12:16;30.80;38.70
26342;DHT22;14054;50.108;8.640;2022-08-11T16:14:46;30.90;38.90
26342;DHT22;14054;50.108;8.640;2022-08-11T16:17:33;31.00;38.80
26342;DHT22;14054;50.108;8.640;2022-08-11T16:20:00;30.80;38.90
26342;DHT22;14054;50.108;8.640;2022-08-11T16:22:29;30.70;39.30
26342;DHT22;14054;50.108;8.640;2022-08-11T16:25:05;30.70;42.10
26342;DHT22;14054;50.108;8.640;2022-08-11T16:27:35;30.90;43.90
26342;DHT22;14054;50.108;8.640;2022-08-11T16:30:02;30.70;46.40
26342;DHT22;14054;50.108;8.640;2022-08-11T16:35:00;30.30;39.50
26342;DHT22;14054;50.108;8.640;2022-08-11T16:37:45;31.70;41.30
26342;DHT22;14054;50.108;8.640;2022-08-11T16:40:31;29.20;51.20
26342;DHT22;14054;50.108;8.640;2022-08-11T16:45:42;30.30;39.90
26342;DHT22;14054;50.108;8.640;2022-08-11T16:48:32;30.20;40.60
26342;DHT22;14054;50.108;8.640;2022-08-11T16:50:58;30.20;41.10
26342;DHT22;14054;50.108;8.640;2022-08-11T16:53:26;30.20;41.00
26342;DHT22;14054;50.108;8.640;2022-08-11T16:55:52;30.10;41.10
26342;DHT22;14054;50.108;8.640;2022-08-11T16:58:20;30.10;41.20
26342;DHT22;14054;50.108;8.640;2022-08-11T17:01:08;30.20;41.20
26342;DHT22;14054;50.108;8.640;2022-08-11T17:03:37;30.10;41.40
26342;DHT22;14054;50.108;8.640;2022-08-11T17:06:23;30.10;41.50
26342;DHT22;14054;50.108;8.640;2022-08-11T17:09:08;30.10;41.50
26342;DHT22;14054;50.108;8.640;2022-08-11T17:11:55;30.10;41.50
26342;DHT22;14054;50.108;8.640;2022-08-11T17:14:48;30.00;41.30
26342;DHT22;14054;50.108;8.640;2022-08-11T17:17:22;30.00;41.00
26342;DHT22;14054;50.108;8.640;2022-08-11T17:19:52;30.00;41.10
26342;DHT22;14054;50.108;8.640;2022-08-11T17:22:19;30.00;41.10
26342;DHT22;14054;50.108;8.640;2022-08-11T17:25:05;29.90;41.00
26342;DHT22;14054;50.108;8.640;2022-08-11T17:27:33;29.70;40.60
26342;DHT22;14054;50.108;8.640;2022-08-11T17:30:03;29.80;41.50
26342;DHT22;14054;50.108;8.640;2022-08-11T17:32:34;29.70;41.40
26342;DHT22;14054;50.108;8.640;2022-08-11T17:35:21;29.70;41.30
26342;DHT22;14054;50.108;8.640;2022-08-11T17:40:39;29.70;41.50
26342;DHT22;14054;50.108;8.640;2022-08-11T17:43:27;29.60;41.10
26342;DHT22;14054;50.108;8.640;2022-08-11T17:46:12;29.60;40.80
26342;DHT22;14054;50.108;8.640;2022-08-11T17:48:57;29.60;40.90
26342;DHT22;14054;50.108;8.640;2022-08-11T17:51:23;29.60;40.50
26342;DHT22;14054;50.108;8.640;2022-08-11T17:54:08;29.60;40.80
26342;DHT22;14054;50.108;8.640;2022-08-11T17:56:54;29.50;40.50
26342;DHT22;14054;50.108;8.640;2022-08-11T17:59:39;29.60;41.80
26342;DHT22;14054;50.108;8.640;2022-08-11T18:02:25;29.40;41.10
26342;DHT22;14054;50.108;8.640;2022-08-11T18:05:11;29.50;41.10
26342;DHT22;14054;50.108;8.640;2022-08-11T18:07:42;29.50;44.40
26342;DHT22;14054;50.108;8.640;2022-08-11T18:10:29;29.50;51.90
26342;DHT22;14054;50.108;8.640;2022-08-11T18:13:16;29.10;41.80
26342;DHT22;14054;50.108;8.640;2022-08-11T18:16:01;29.00;41.90
26342;DHT22;14054;50.108;8.640;2022-08-11T18:18:45;29.00;41.90
26342;DHT22;14054;50.108;8.640;2022-08-11T18:21:29;28.90;80.00
26342;DHT22;14054;50.108;8.640;2022-08-11T18:24:15;28.80;48.30
26342;DHT22;14054;50.108;8.640;2022-08-11T18:27:03;28.80;41.80
26342;DHT22;14054;50.108;8.640;2022-08-11T18:29:49;28.80;42.00
26342;DHT22;14054;50.108;8.640;2022-08-11T18:32:36;28.70;42.00
26342;DHT22;14054;50.108;8.640;2022-08-11T18:35:22;28.70;42.10
26342;DHT22;14054;50.108;8.640;2022-08-11T18:38:10;28.70;43.20
26342;DHT22;14054;50.108;8.640;2022-08-11T18:40:56;28.50;43.10
26342;DHT22;14054;50.108;8.640;2022-08-11T18:43:44;28.40;43.30
26342;DHT22;14054;50.108;8.640;2022-08-11T18:46:33;28.30;44.60
26342;DHT22;14054;50.108;8.640;2022-08-11T18:49:24;28.20;42.90
26342;DHT22;14054;50.108;8.640;2022-08-11T18:52:09;28.20;42.60
26342;DHT22;14054;50.108;8.640;2022-08-11T18:54:57;28.20;43.00
26342;DHT22;14054;50.108;8.640;2022-08-11T18:57:46;28.20;43.00
26342;DHT22;14054;50.108;8.640;2022-08-11T19:00:32;28.10;43.10
26342;DHT22;14054;50.108;8.640;2022-08-11T19:03:17;28.00;43.70
26342;DHT22;14054;50.108;8.640;2022-08-11T19:06:04;27.90;43.80
26342;DHT22;14054;50.108;8.640;2022-08-11T19:08:52;27.90;44.10
26342;DHT22;14054;50.108;8.640;2022-08-11T19:11:40;27.80;44.40
26342;DHT22;14054;50.108;8.640;2022-08-11T19:14:26;27.70;43.70
26342;DHT22;14054;50.108;8.640;2022-08-11T19:17:13;27.70;43.40
26342;DHT22;14054;50.108;8.640;2022-08-11T19:19:58;27.70;43.90
26342;DHT22;14054;50.108;8.640;2022-08-11T19:22:44;27.70;44.20
26342;DHT22;14054;50.108;8.640;2022-08-11T19:25:30;27.60;43.80
26342;DHT22;14054;50.108;8.640;2022-08-11T19:28:16;27.50;44.40
26342;DHT22;14054;50.108;8.640;2022-08-11T19:31:01;27.40;44.90
26342;DHT22;14054;50.108;8.640;2022-08-11T19:33:46;27.30;45.10
26342;DHT22;14054;50.108;8.640;2022-08-11T19:36:31;27.30;45.50
26342;DHT22;14054;50.108;8.640;2022-08-11T19:39:18;27.20;45.50
26342;DHT22;14054;50.108;8.640;2022-08-11T19:42:07;27.20;46.00
26342;DHT22;14054;50.108;8.640;2022-08-11T19:44:53;27.10;46.10
26342;DHT22;14054;50.108;8.640;2022-08-11T19:47:37;27.10;46.60
26342;DHT22;14054;50.108;8.640;2022-08-11T19:50:23;27.00;46.50
26342;DHT22;14054;50.108;8.640;2022-08-11T19:53:08;26.90;46.80
26342;DHT22;14054;50.108;8.640;2022-08-11T19:55:52;26.90;47.00
26342;DHT22;14054;50.108;8.640;2022-08-11T19:58:38;26.90;47.10
26342;DHT22;14054;50.108;8.640;2022-08-11T20:01:23;26.80;47.20
26342;DHT22;14054;50.108;8.640;2022-08-11T20:04:07;26.80;47.40
26342;DHT22;14054;50.108;8.640;2022-08-11T20:06:52;26.70;47.50
26342;DHT22;14054;50.108;8.640;2022-08-11T20:09:38;26.60;47.40
26342;DHT22;14054;50.108;8.640;2022-08-11T20:12:26;26.60;47.60
26342;DHT22;14054;50.108;8.640;2022-08-11T20:15:12;26.60;47.60
26342;DHT22;14054;50.108;8.640;2022-08-11T20:17:58;26.50;48.00
26342;DHT22;14054;50.108;8.640;2022-08-11T20:20:43;26.50;47.80
26342;DHT22;14054;50.108;8.640;2022-08-11T20:23:28;26.40;47.90
26342;DHT22;14054;50.108;8.640;2022-08-11T20:26:12;26.40;47.90
26342;DHT22;14054;50.108;8.640;2022-08-11T20:28:57;26.30;48.20
26342;DHT22;14054;50.108;8.640;2022-08-11T20:31:43;26.30;48.40
26342;DHT22;14054;50.108;8.640;2022-08-11T20:34:30;26.20;48.70
26342;DHT22;14054;50.108;8.640;2022-08-11T20:37:16;26.20;48.90
26342;DHT22;14054;50.108;8.640;2022-08-11T20:40:02;26.10;48.70
26342;DHT22;14054;50.108;8.640;2022-08-11T20:42:47;26.10;49.10
26342;DHT22;14054;50.108;8.640;2022-08-11T20:45:32;25.90;49.20
26342;DHT22;14054;50.108;8.640;2022-08-11T20:48:19;25.80;49.40
26342;DHT22;14054;50.108;8.640;2022-08-11T20:51:04;25.80;49.80
26342;DHT22;14054;50.108;8.640;2022-08-11T20:53:49;25.70;49.90
26342;DHT22;14054;50.108;8.640;2022-08-11T20:56:34;25.70;50.10
26342;DHT22;14054;50.108;8.640;2022-08-11T20:59:21;25.60;50.10